EA1ABW
43.24.77N 005.47.77W
IN73CJ aprs.fi
zuletzt gehoert:
2021-04-23T15:02:03Z
zuerst gehoert:
2020-06-23T19:30:06Z

APRS Siero [IN73CJ], 0 Stunde(n), EA1ABW [17:27:46, 0s].
EA1ABW 43.24.77N 005.47.77WIN73CJ 0.728km 324°NW15:02:03ZMMDVM MMDVM HS Hat 439.8250/439.8250 CC1
LEMR 43.25.83N 005.49.60WIN73CK 3.845km 311°NW15:00:05ZAerodromo de la Morgal: LEAS 231430Z 07003KT 020V150 9999 -RA FEW045 SCT075 20/11 Q1012 NOSIG=
LEHU 43.22.63N 005.49.57WIN73CJ 4.434km 220°SW15:00:04ZHelipuerto del HUCA: LEAS 231430Z 07003KT 020V150 9999 -RA FEW045 SCT075 20/11 Q1012 NOSIG=
LEGM 43.26.15N 005.49.84WIN73CK 4.488km 315°NW15:00:04ZHelipuerto de La Morgal: LEAS 231430Z 07003KT 020V150 9999 -RA FEW045 SCT075 20/11 Q1012 NOSIG=
33D00 43.21.63N 005.51.13WIN73BI 7.207km 223°SW15:01:43Z33-D-00 Protección Civil REMER / Delegación del Gobierno en Asturias
EA1YR 43.22.09N 005.51.86WIN73BI 7.375km 234°SW15:06:38ZMMDVM DVS 434.3500/434.3500 CC1
ED1ZAU 43.23.04N 005.52.75WIN73BJ 7.604km 250°WSW15:07:33ZRD625 438.5000/430.9000 CC1
EA1L 43.20.37N 005.51.13WIN73BI 9.034km 213°SSW15:20:04Zea1l@ure.es V=11.7V,T=??.?C
Wind 000°/000kn, Böen bis 000kn, Temp 0.00c, Regen 0.0mm, letzte 24h 0.0mm, seit 0h 0.0mm, Baro 0000.0h, Hum: 0%(2EA1L-13)
ED1ZAS 43.27.52N 005.40.17WIN73DL 11.328km 60°ENE15:07:25ZRD985 438.2250/430.6250 CC1
ED1ZAE 43.27.99N 005.40.54WIN73DL 11.368km 55°NE15:26:51Z2m Voice 145.5875 -0.600 Mhz(3ED1ZAE-C)
400 M. PICO SAN MARTIN (GIJON) 13.5V,23.7C(2ED1ZAE-3)
EB1CAM 43.18.02N 005.53.08WIN73BH 14.142km 212°SSW15:27:34ZEB1CAM por ahi(3EB1CAM-9)
ED1ZAY 43.29.47N 005.56.54WIN73AL 15.359km 307°NW15:07:30ZRD625 438.3000/430.7000 CC1
EA1FLQ 43.22.00N 005.36.35WIN73EI 15.630km 107°ESE15:04:35ZMMDVM DVMega 439.9750/439.9750 CC5
EB1TK 43.32.22N 005.42.32WIN73DM 15.968km 26°NNE15:25:16ZWind 337°/002kn, Böen bis 004kn, Temp 18.33c, Regen 0.0mm, letzte 24h 0.0mm, seit 0h 0.0mm, Baro 1015.4h, Hum: 68%(3EB1TK-13)
EA1FFA 43.31.53N 005.40.64WIN73DM 16.006km 35°NE15:03:16ZMMDVM MMDVM HS Hat 438.8000/438.8000 CC1
EA1DZR 43.31.47N 005.40.00WIN73DM 16.403km 38°NE15:06:44ZMMDVM DVMega 431.1000/431.1000 CC1
LEEL 43.32.98N 005.41.71WIN73DN 17.571km 26°NNE15:00:05ZHelipuerto de El Musel: LEAS 231430Z 07003KT 020V150 9999 -RA FEW045 SCT075 20/11 Q1012 NOSIG=
EA1AHA 43.32.74N 005.54.36WIN73BN 17.932km 329°NNW15:01:02ZWind 270°/004kn, Böen bis 006kn, Temp 23.33c, Regen 0.0mm, letzte 24h 0.0mm, seit 0h 0.0mm, Baro 1013.3h, Hum: 36%(3EA1AHA-13)
MMDVM MMDVM HS 432.5000/432.5000 CC1(2EA1AHA)
EB1GEM 43.30.00N 005.36.07WIN73EM 18.452km 56°NE15:21:39ZWX3in1Plus2.0 U=13.3V,T=??.?C/??.?F(3EB1GEM-3)
EA1IMW 43.14.36N 005.46.93WIN73CF 18.732km 178°S15:06:18ZGRUPO RADIO GALENA (GRG) 433.4500/433.4500 CC1
EA1GHQ 43.30.67N 005.36.12WIN73EM 19.106km 53°NE15:20:09ZTransmission ended(3EA1GHQ-7)
EA1IZV 43.33.25N 005.55.92WIN73AN 19.869km 325°NW15:15:02ZEn proceso...
EB1DGC 43.12.60N 005.45.59WIN73CF 22.123km 173°S15:02:10ZMMDVM MMDVM HS Hat 433.4500/433.4500 CC1
EA1JBL 43.12.28N 005.47.42WIN73CE 22.554km 180°S15:06:04ZMMDVM DVMega 435.3000/435.3000 CC1
EA1HWA 43.12.00N 005.47.40WIN73CE 23.092km 180°S15:04:23ZMMDVM MMDVM HS Hat 433.4500/433.4500 CC1
EA1DHE 43.33.98N 005.58.57WIN73AN 23.124km 320°NW15:06:38ZMMDVM DVS 434.3500/434.3500 CC1
EA1HJA 43.28.10N 005.30.45WIN73FL 23.861km 73°ENE15:20:14Z IN73FL WX3IN1+ 2.0 - V=13.9V,TX TEMP=44.8C
IN73FL WX3IN1+ 2.0 - V=13.3V,TX TEMP=32.6C(2EA1HJA-2)
EA1RCG 43.09.45N 005.49.78WIN73CD 27.975km 186°S15:07:00ZGRUPO RADIO GALENA (GRG) 433.4500/433.4500 CC1
EA1FHR 43.28.72N 005.26.41WIN73GL 29.388km 74°ENE15:03:31ZMMDVM MMDVM HS Hat 439.1500/439.1500 CC1
EA1JAY 43.29.32N 005.26.60WIN73GL 29.478km 72°ENE15:04:48ZEA1JAY(3EA1JAY-2)
EA1JAY 438.8000/438.8000 CC1(2EA1JAY)
ED1ZAD 43.07.90N 005.38.52WIN73ED 32.953km 158°SSE15:20:12ZED1ZAD-3 APRS Digi/Igate(3ED1ZAD-3)
EC1KV 43.34.01N 006.16.01WIN63UN 42.261km 295°WNW15:07:39Z VOLT.=13.5 V - TEMP.=??.? C(3EC1KV-1)
EA1JBU 43.30.80N 005.16.20WIN73IM 43.643km 74°ENE15:15:04ZEA1JBU(3EA1JBU-2)
EA1JBE 43.30.90N 005.16.15WIN73IM 43.770km 74°ENE15:15:18ZHelipuerto de La Morgal: LEAS 231430Z 07003KT 020V150 9999 -RA FEW045 SCT075 20/11 Q1012 NOSIG=(3EA1JBE-2)
EA1JBU(2EA1JBE-13)
MAIN QTH http://qrz.com/db/ea1jbe(2EA1JBE-1)
LETN 43.20.05N 006.22.69WIN63TI 48.163km 260°W15:00:05ZAerodromo de La Curiscada (Tineo): LEAS 231430Z 07003KT 020V150 9999 -RA FEW045 SCT075 20/11 Q1012 NOSIG=
EA1GS 43.23.36N 005.11.20WIN73JJ 48.849km 92°E15:06:04ZMMDVM MMDVM HS Hat 436.1000/436.1000 CC1

aprs.pl 5.0.011w DL3EL © 2006-2021 [277686]